sensor_id;sensor_type;location;lat;lon;timestamp;temperature;humidity
27224;DHT22;14965;50.660;13.226;2024-03-23T00:55:34;8.70;99.90
27224;DHT22;14965;50.660;13.226;2024-03-23T00:58:00;8.60;99.90
27224;DHT22;14965;50.660;13.226;2024-03-23T01:00:25;8.60;99.90
27224;DHT22;14965;50.660;13.226;2024-03-23T01:02:51;8.60;99.90
27224;DHT22;14965;50.660;13.226;2024-03-23T01:05:17;8.50;99.90
27224;DHT22;14965;50.660;13.226;2024-03-23T01:07:43;8.50;99.90
27224;DHT22;14965;50.660;13.226;2024-03-23T01:10:09;8.50;99.90
27224;DHT22;14965;50.660;13.226;2024-03-23T01:12:36;8.50;99.90
27224;DHT22;14965;50.660;13.226;2024-03-23T01:15:03;8.50;99.90
27224;DHT22;14965;50.660;13.226;2024-03-23T01:17:29;8.60;99.90
27224;DHT22;14965;50.660;13.226;2024-03-23T01:19:55;8.60;99.90
27224;DHT22;14965;50.660;13.226;2024-03-23T01:22:20;8.60;99.90
27224;DHT22;14965;50.660;13.226;2024-03-23T01:24:46;8.60;99.90
27224;DHT22;14965;50.660;13.226;2024-03-23T01:27:12;8.60;99.90
27224;DHT22;14965;50.660;13.226;2024-03-23T01:29:39;8.70;99.90
27224;DHT22;14965;50.660;13.226;2024-03-23T01:32:06;8.70;99.90
27224;DHT22;14965;50.660;13.226;2024-03-23T01:34:32;8.70;99.90
27224;DHT22;14965;50.660;13.226;2024-03-23T01:36:58;8.70;99.90
27224;DHT22;14965;50.660;13.226;2024-03-23T01:39:25;8.70;99.90
27224;DHT22;14965;50.660;13.226;2024-03-23T01:41:50;8.70;99.90
27224;DHT22;14965;50.660;13.226;2024-03-23T01:44:17;8.60;99.90
27224;DHT22;14965;50.660;13.226;2024-03-23T01:46:44;8.60;99.90
27224;DHT22;14965;50.660;13.226;2024-03-23T01:49:10;8.60;99.90
27224;DHT22;14965;50.660;13.226;2024-03-23T01:51:37;8.60;99.90
27224;DHT22;14965;50.660;13.226;2024-03-23T01:54:04;8.60;99.90
27224;DHT22;14965;50.660;13.226;2024-03-23T01:56:32;8.50;99.90
27224;DHT22;14965;50.660;13.226;2024-03-23T01:58:59;8.50;99.90
27224;DHT22;14965;50.660;13.226;2024-03-23T02:01:25;8.40;99.90
27224;DHT22;14965;50.660;13.226;2024-03-23T02:03:52;8.40;99.90
27224;DHT22;14965;50.660;13.226;2024-03-23T02:06:18;8.30;99.90
27224;DHT22;14965;50.660;13.226;2024-03-23T02:08:44;8.30;99.90
27224;DHT22;14965;50.660;13.226;2024-03-23T02:11:10;8.30;99.90
27224;DHT22;14965;50.660;13.226;2024-03-23T02:13:36;8.20;99.90
27224;DHT22;14965;50.660;13.226;2024-03-23T02:16:02;8.20;99.90
27224;DHT22;14965;50.660;13.226;2024-03-23T02:18:28;8.10;99.90
27224;DHT22;14965;50.660;13.226;2024-03-23T02:20:55;8.10;99.90
27224;DHT22;14965;50.660;13.226;2024-03-23T02:23:22;8.10;99.90
27224;DHT22;14965;50.660;13.226;2024-03-23T02:25:48;8.10;99.90
27224;DHT22;14965;50.660;13.226;2024-03-23T02:28:14;8.10;99.90
27224;DHT22;14965;50.660;13.226;2024-03-23T02:30:40;8.10;99.90
27224;DHT22;14965;50.660;13.226;2024-03-23T02:33:06;8.10;99.90
27224;DHT22;14965;50.660;13.226;2024-03-23T02:35:31;8.00;99.90
27224;DHT22;14965;50.660;13.226;2024-03-23T02:37:58;7.90;99.90
27224;DHT22;14965;50.660;13.226;2024-03-23T02:40:25;7.90;99.90
27224;DHT22;14965;50.660;13.226;2024-03-23T02:42:53;7.80;99.90
27224;DHT22;14965;50.660;13.226;2024-03-23T02:45:19;7.70;99.90
27224;DHT22;14965;50.660;13.226;2024-03-23T02:47:45;7.70;99.90
27224;DHT22;14965;50.660;13.226;2024-03-23T02:50:11;7.70;99.90
27224;DHT22;14965;50.660;13.226;2024-03-23T02:52:37;7.70;99.90
27224;DHT22;14965;50.660;13.226;2024-03-23T02:55:04;7.70;99.90
27224;DHT22;14965;50.660;13.226;2024-03-23T02:57:31;7.70;99.90
27224;DHT22;14965;50.660;13.226;2024-03-23T02:59:57;7.70;99.90
27224;DHT22;14965;50.660;13.226;2024-03-23T03:02:23;7.70;99.90
27224;DHT22;14965;50.660;13.226;2024-03-23T03:04:48;7.60;99.90
27224;DHT22;14965;50.660;13.226;2024-03-23T03:07:14;7.60;99.90
27224;DHT22;14965;50.660;13.226;2024-03-23T03:09:40;7.60;99.90
27224;DHT22;14965;50.660;13.226;2024-03-23T03:12:06;7.50;99.90
27224;DHT22;14965;50.660;13.226;2024-03-23T03:14:34;7.60;99.90
27224;DHT22;14965;50.660;13.226;2024-03-23T03:17:00;7.50;99.90
27224;DHT22;14965;50.660;13.226;2024-03-23T03:19:26;7.50;99.90
27224;DHT22;14965;50.660;13.226;2024-03-23T03:21:52;7.50;99.90
27224;DHT22;14965;50.660;13.226;2024-03-23T03:24:18;7.40;99.90
27224;DHT22;14965;50.660;13.226;2024-03-23T03:26:44;7.30;99.90
27224;DHT22;14965;50.660;13.226;2024-03-23T03:29:10;7.30;99.90
27224;DHT22;14965;50.660;13.226;2024-03-23T03:31:37;7.20;99.90
27224;DHT22;14965;50.660;13.226;2024-03-23T03:34:04;7.20;99.90
27224;DHT22;14965;50.660;13.226;2024-03-23T03:36:30;7.10;99.90
27224;DHT22;14965;50.660;13.226;2024-03-23T03:38:56;7.10;99.90
27224;DHT22;14965;50.660;13.226;2024-03-23T03:41:21;7.00;99.90
27224;DHT22;14965;50.660;13.226;2024-03-23T03:43:47;6.90;99.90
27224;DHT22;14965;50.660;13.226;2024-03-23T03:46:13;6.80;99.90
27224;DHT22;14965;50.660;13.226;2024-03-23T03:48:40;6.80;99.90
27224;DHT22;14965;50.660;13.226;2024-03-23T03:51:06;6.80;99.90
27224;DHT22;14965;50.660;13.226;2024-03-23T03:53:32;6.60;99.90
27224;DHT22;14965;50.660;13.226;2024-03-23T03:56:00;6.60;99.90
27224;DHT22;14965;50.660;13.226;2024-03-23T03:58:26;6.50;99.90
27224;DHT22;14965;50.660;13.226;2024-03-23T04:00:52;6.50;99.90
27224;DHT22;14965;50.660;13.226;2024-03-23T04:03:18;6.50;99.90
27224;DHT22;14965;50.660;13.226;2024-03-23T04:05:51;6.50;99.90
27224;DHT22;14965;50.660;13.226;2024-03-23T04:08:17;6.40;99.90
27224;DHT22;14965;50.660;13.226;2024-03-23T04:10:43;6.40;99.90
27224;DHT22;14965;50.660;13.226;2024-03-23T04:13:09;6.40;99.90
27224;DHT22;14965;50.660;13.226;2024-03-23T04:15:35;6.20;99.90
27224;DHT22;14965;50.660;13.226;2024-03-23T04:18:01;6.10;99.90
27224;DHT22;14965;50.660;13.226;2024-03-23T04:20:26;6.10;99.90
27224;DHT22;14965;50.660;13.226;2024-03-23T04:22:54;6.00;99.90
27224;DHT22;14965;50.660;13.226;2024-03-23T04:25:19;6.00;99.90
27224;DHT22;14965;50.660;13.226;2024-03-23T04:27:45;6.00;99.90
27224;DHT22;14965;50.660;13.226;2024-03-23T04:30:12;6.00;99.90
27224;DHT22;14965;50.660;13.226;2024-03-23T04:32:38;6.00;99.90
27224;DHT22;14965;50.660;13.226;2024-03-23T04:35:05;6.00;99.90
27224;DHT22;14965;50.660;13.226;2024-03-23T04:37:32;6.00;99.90
27224;DHT22;14965;50.660;13.226;2024-03-23T04:39:59;6.00;99.90
27224;DHT22;14965;50.660;13.226;2024-03-23T04:42:25;6.00;99.90
27224;DHT22;14965;50.660;13.226;2024-03-23T04:44:51;6.10;99.90
27224;DHT22;14965;50.660;13.226;2024-03-23T04:47:17;6.10;99.90
27224;DHT22;14965;50.660;13.226;2024-03-23T04:49:42;6.30;99.90
27224;DHT22;14965;50.660;13.226;2024-03-23T04:52:08;6.40;99.90
27224;DHT22;14965;50.660;13.226;2024-03-23T04:54:34;6.50;99.90
27224;DHT22;14965;50.660;13.226;2024-03-23T04:57:01;6.60;99.90
27224;DHT22;14965;50.660;13.226;2024-03-23T04:59:27;6.70;99.90
27224;DHT22;14965;50.660;13.226;2024-03-23T05:01:53;6.80;99.90
27224;DHT22;14965;50.660;13.226;2024-03-23T05:04:19;6.80;99.90
27224;DHT22;14965;50.660;13.226;2024-03-23T05:06:45;6.80;99.90
27224;DHT22;14965;50.660;13.226;2024-03-23T05:09:11;6.90;99.90
27224;DHT22;14965;50.660;13.226;2024-03-23T05:11:36;7.00;99.90
27224;DHT22;14965;50.660;13.226;2024-03-23T05:14:04;7.10;99.90
27224;DHT22;14965;50.660;13.226;2024-03-23T05:16:30;7.10;99.90
27224;DHT22;14965;50.660;13.226;2024-03-23T05:18:56;7.20;99.90
27224;DHT22;14965;50.660;13.226;2024-03-23T05:21:22;7.20;99.90
27224;DHT22;14965;50.660;13.226;2024-03-23T05:23:47;7.30;99.90
27224;DHT22;14965;50.660;13.226;2024-03-23T05:26:13;7.40;99.90
27224;DHT22;14965;50.660;13.226;2024-03-23T05:28:40;7.50;99.90
27224;DHT22;14965;50.660;13.226;2024-03-23T05:31:07;7.60;99.90
27224;DHT22;14965;50.660;13.226;2024-03-23T05:33:33;7.70;99.90
27224;DHT22;14965;50.660;13.226;2024-03-23T05:36:01;7.70;99.90
27224;DHT22;14965;50.660;13.226;2024-03-23T05:38:27;7.90;99.90
27224;DHT22;14965;50.660;13.226;2024-03-23T05:40:53;8.00;99.90
27224;DHT22;14965;50.660;13.226;2024-03-23T05:43:19;8.10;99.90
27224;DHT22;14965;50.660;13.226;2024-03-23T05:45:45;8.20;99.90
27224;DHT22;14965;50.660;13.226;2024-03-23T05:48:13;8.30;99.90
27224;DHT22;14965;50.660;13.226;2024-03-23T05:50:39;8.30;99.90
27224;DHT22;14965;50.660;13.226;2024-03-23T05:53:05;8.40;99.90
27224;DHT22;14965;50.660;13.226;2024-03-23T05:55:30;8.40;99.90
27224;DHT22;14965;50.660;13.226;2024-03-23T05:57:56;8.40;99.90
27224;DHT22;14965;50.660;13.226;2024-03-23T06:00:22;8.50;99.90
27224;DHT22;14965;50.660;13.226;2024-03-23T06:02:48;8.50;99.90
27224;DHT22;14965;50.660;13.226;2024-03-23T06:05:15;8.50;99.90
27224;DHT22;14965;50.660;13.226;2024-03-23T06:07:41;8.50;99.90
27224;DHT22;14965;50.660;13.226;2024-03-23T06:10:08;8.50;99.90
27224;DHT22;14965;50.660;13.226;2024-03-23T06:12:34;8.40;99.90
27224;DHT22;14965;50.660;13.226;2024-03-23T06:15:00;8.40;99.90
27224;DHT22;14965;50.660;13.226;2024-03-23T06:17:25;8.40;99.90
27224;DHT22;14965;50.660;13.226;2024-03-23T06:19:51;8.40;99.90
27224;DHT22;14965;50.660;13.226;2024-03-23T06:22:19;8.40;99.90
27224;DHT22;14965;50.660;13.226;2024-03-23T06:24:45;8.40;99.90
27224;DHT22;14965;50.660;13.226;2024-03-23T06:27:10;8.50;99.90
27224;DHT22;14965;50.660;13.226;2024-03-23T06:29:36;8.50;99.90
27224;DHT22;14965;50.660;13.226;2024-03-23T06:32:02;8.60;99.90
27224;DHT22;14965;50.660;13.226;2024-03-23T06:34:28;8.50;99.90
27224;DHT22;14965;50.660;13.226;2024-03-23T06:36:54;8.60;99.90
27224;DHT22;14965;50.660;13.226;2024-03-23T06:39:21;8.50;99.90
27224;DHT22;14965;50.660;13.226;2024-03-23T06:41:52;8.60;99.90
27224;DHT22;14965;50.660;13.226;2024-03-23T06:44:18;8.60;99.90
27224;DHT22;14965;50.660;13.226;2024-03-23T06:46:45;8.60;99.90
27224;DHT22;14965;50.660;13.226;2024-03-23T06:49:11;8.60;99.90
27224;DHT22;14965;50.660;13.226;2024-03-23T06:51:37;8.70;99.90
27224;DHT22;14965;50.660;13.226;2024-03-23T06:54:03;8.70;99.90
27224;DHT22;14965;50.660;13.226;2024-03-23T06:56:31;8.70;99.90
27224;DHT22;14965;50.660;13.226;2024-03-23T06:58:56;8.70;99.90
27224;DHT22;14965;50.660;13.226;2024-03-23T07:01:22;8.70;99.90
27224;DHT22;14965;50.660;13.226;2024-03-23T07:03:48;8.80;99.90
27224;DHT22;14965;50.660;13.226;2024-03-23T07:06:14;8.80;99.90
27224;DHT22;14965;50.660;13.226;2024-03-23T07:08:40;8.80;99.90
27224;DHT22;14965;50.660;13.226;2024-03-23T07:11:06;8.90;99.90
27224;DHT22;14965;50.660;13.226;2024-03-23T07:13:33;8.90;99.90
27224;DHT22;14965;50.660;13.226;2024-03-23T07:15:59;8.90;99.90
27224;DHT22;14965;50.660;13.226;2024-03-23T07:18:25;9.00;99.90
27224;DHT22;14965;50.660;13.226;2024-03-23T07:20:55;9.00;99.90
27224;DHT22;14965;50.660;13.226;2024-03-23T07:23:22;9.10;99.90
27224;DHT22;14965;50.660;13.226;2024-03-23T07:25:56;9.10;99.90
27224;DHT22;14965;50.660;13.226;2024-03-23T07:28:22;9.20;99.90
27224;DHT22;14965;50.660;13.226;2024-03-23T07:31:02;9.30;99.90
27224;DHT22;14965;50.660;13.226;2024-03-23T07:33:29;9.40;99.90
27224;DHT22;14965;50.660;13.226;2024-03-23T07:35:54;9.50;99.90
27224;DHT22;14965;50.660;13.226;2024-03-23T07:38:21;9.50;99.90
27224;DHT22;14965;50.660;13.226;2024-03-23T07:40:47;9.60;99.90
27224;DHT22;14965;50.660;13.226;2024-03-23T07:43:13;9.60;99.90
27224;DHT22;14965;50.660;13.226;2024-03-23T07:45:39;9.70;99.90
27224;DHT22;14965;50.660;13.226;2024-03-23T07:48:07;9.70;99.90
27224;DHT22;14965;50.660;13.226;2024-03-23T07:50:33;9.80;99.90
27224;DHT22;14965;50.660;13.226;2024-03-23T07:52:58;9.80;99.90
27224;DHT22;14965;50.660;13.226;2024-03-23T07:55:24;9.90;99.90
27224;DHT22;14965;50.660;13.226;2024-03-23T07:57:51;10.00;99.90
27224;DHT22;14965;50.660;13.226;2024-03-23T08:00:17;10.10;99.90
27224;DHT22;14965;50.660;13.226;2024-03-23T08:02:43;10.10;99.90
27224;DHT22;14965;50.660;13.226;2024-03-23T08:05:11;10.20;99.90
27224;DHT22;14965;50.660;13.226;2024-03-23T08:07:36;10.20;99.90
27224;DHT22;14965;50.660;13.226;2024-03-23T08:10:03;10.50;99.90
27224;DHT22;14965;50.660;13.226;2024-03-23T08:12:29;10.60;99.90
27224;DHT22;14965;50.660;13.226;2024-03-23T08:14:57;10.70;99.90
27224;DHT22;14965;50.660;13.226;2024-03-23T08:17:23;10.70;99.90
27224;DHT22;14965;50.660;13.226;2024-03-23T08:19:49;10.80;99.90
27224;DHT22;14965;50.660;13.226;2024-03-23T08:22:16;10.90;99.90
27224;DHT22;14965;50.660;13.226;2024-03-23T08:24:42;11.00;99.90
27224;DHT22;14965;50.660;13.226;2024-03-23T08:27:07;10.90;99.90
27224;DHT22;14965;50.660;13.226;2024-03-23T08:29:33;10.70;99.90
27224;DHT22;14965;50.660;13.226;2024-03-23T08:31:59;10.60;99.90
27224;DHT22;14965;50.660;13.226;2024-03-23T08:34:25;10.40;99.90
27224;DHT22;14965;50.660;13.226;2024-03-23T08:36:51;10.30;99.90
27224;DHT22;14965;50.660;13.226;2024-03-23T08:39:18;10.20;99.90
27224;DHT22;14965;50.660;13.226;2024-03-23T08:41:44;10.20;99.90
27224;DHT22;14965;50.660;13.226;2024-03-23T08:44:10;10.20;99.90
27224;DHT22;14965;50.660;13.226;2024-03-23T08:46:36;10.10;99.90
27224;DHT22;14965;50.660;13.226;2024-03-23T08:49:01;10.10;99.90
27224;DHT22;14965;50.660;13.226;2024-03-23T08:51:27;10.10;99.90
27224;DHT22;14965;50.660;13.226;2024-03-23T08:53:53;10.10;99.90
27224;DHT22;14965;50.660;13.226;2024-03-23T08:56:20;10.10;99.90
27224;DHT22;14965;50.660;13.226;2024-03-23T08:58:46;10.10;99.90
27224;DHT22;14965;50.660;13.226;2024-03-23T09:01:13;10.10;99.90
27224;DHT22;14965;50.660;13.226;2024-03-23T09:03:39;10.00;99.90
27224;DHT22;14965;50.660;13.226;2024-03-23T09:06:07;10.00;99.90
27224;DHT22;14965;50.660;13.226;2024-03-23T09:08:33;9.90;99.90
27224;DHT22;14965;50.660;13.226;2024-03-23T09:11:03;9.90;99.90
27224;DHT22;14965;50.660;13.226;2024-03-23T09:13:31;9.80;99.90
27224;DHT22;14965;50.660;13.226;2024-03-23T09:15:57;9.80;99.90
27224;DHT22;14965;50.660;13.226;2024-03-23T09:18:23;9.70;99.90
27224;DHT22;14965;50.660;13.226;2024-03-23T09:20:49;9.60;99.90
27224;DHT22;14965;50.660;13.226;2024-03-23T09:23:15;9.50;99.90
27224;DHT22;14965;50.660;13.226;2024-03-23T09:25:41;9.30;99.90
27224;DHT22;14965;50.660;13.226;2024-03-23T09:28:07;9.30;99.90
27224;DHT22;14965;50.660;13.226;2024-03-23T09:30:35;9.30;99.90
27224;DHT22;14965;50.660;13.226;2024-03-23T09:33:03;9.20;99.90
27224;DHT22;14965;50.660;13.226;2024-03-23T09:35:29;9.10;99.90
27224;DHT22;14965;50.660;13.226;2024-03-23T09:37:54;9.00;99.90
27224;DHT22;14965;50.660;13.226;2024-03-23T09:40:20;8.70;99.90
27224;DHT22;14965;50.660;13.226;2024-03-23T09:42:50;8.50;99.90
27224;DHT22;14965;50.660;13.226;2024-03-23T09:45:17;8.10;99.90
27224;DHT22;14965;50.660;13.226;2024-03-23T09:47:48;7.50;99.90
27224;DHT22;14965;50.660;13.226;2024-03-23T09:50:14;7.30;99.90
27224;DHT22;14965;50.660;13.226;2024-03-23T09:52:40;7.00;99.90
27224;DHT22;14965;50.660;13.226;2024-03-23T09:55:08;6.60;99.90
27224;DHT22;14965;50.660;13.226;2024-03-23T09:57:34;6.50;99.90
27224;DHT22;14965;50.660;13.226;2024-03-23T10:00:00;6.00;99.90
27224;DHT22;14965;50.660;13.226;2024-03-23T10:02:26;5.70;99.90
27224;DHT22;14965;50.660;13.226;2024-03-23T10:04:55;5.40;99.90
27224;DHT22;14965;50.660;13.226;2024-03-23T10:07:21;5.10;99.90
27224;DHT22;14965;50.660;13.226;2024-03-23T10:09:47;4.90;99.90
27224;DHT22;14965;50.660;13.226;2024-03-23T10:12:14;4.80;99.90
27224;DHT22;14965;50.660;13.226;2024-03-23T10:14:41;4.70;99.90
27224;DHT22;14965;50.660;13.226;2024-03-23T10:17:15;4.50;99.90
27224;DHT22;14965;50.660;13.226;2024-03-23T10:19:42;4.40;99.90
27224;DHT22;14965;50.660;13.226;2024-03-23T10:22:13;4.30;99.90
27224;DHT22;14965;50.660;13.226;2024-03-23T10:24:39;4.30;99.90
27224;DHT22;14965;50.660;13.226;2024-03-23T10:27:06;4.20;99.90
27224;DHT22;14965;50.660;13.226;2024-03-23T10:29:31;4.30;99.90
27224;DHT22;14965;50.660;13.226;2024-03-23T10:32:13;4.30;99.90
27224;DHT22;14965;50.660;13.226;2024-03-23T10:34:40;4.20;99.90
27224;DHT22;14965;50.660;13.226;2024-03-23T10:37:06;4.20;99.90
27224;DHT22;14965;50.660;13.226;2024-03-23T10:39:35;4.30;99.90
27224;DHT22;14965;50.660;13.226;2024-03-23T10:42:03;4.30;99.90
27224;DHT22;14965;50.660;13.226;2024-03-23T10:44:31;4.40;99.90
27224;DHT22;14965;50.660;13.226;2024-03-23T10:46:58;4.50;99.90
27224;DHT22;14965;50.660;13.226;2024-03-23T10:49:25;4.60;99.90
27224;DHT22;14965;50.660;13.226;2024-03-23T10:51:51;4.70;99.90
27224;DHT22;14965;50.660;13.226;2024-03-23T10:54:18;4.70;99.90
27224;DHT22;14965;50.660;13.226;2024-03-23T10:56:46;4.80;99.90
27224;DHT22;14965;50.660;13.226;2024-03-23T10:59:16;4.80;99.90
27224;DHT22;14965;50.660;13.226;2024-03-23T11:01:54;4.70;99.90
27224;DHT22;14965;50.660;13.226;2024-03-23T11:04:29;4.60;99.90
27224;DHT22;14965;50.660;13.226;2024-03-23T11:06:56;4.60;99.90
27224;DHT22;14965;50.660;13.226;2024-03-23T11:09:41;4.70;99.90
27224;DHT22;14965;50.660;13.226;2024-03-23T11:12:25;5.00;99.90
27224;DHT22;14965;50.660;13.226;2024-03-23T11:14:54;4.90;99.90
27224;DHT22;14965;50.660;13.226;2024-03-23T11:17:23;4.80;99.90
27224;DHT22;14965;50.660;13.226;2024-03-23T11:19:53;4.80;99.90
27224;DHT22;14965;50.660;13.226;2024-03-23T11:22:38;4.80;99.90
27224;DHT22;14965;50.660;13.226;2024-03-23T11:25:13;4.80;99.90
27224;DHT22;14965;50.660;13.226;2024-03-23T11:27:41;4.80;99.90
27224;DHT22;14965;50.660;13.226;2024-03-23T11:30:14;4.80;99.90
27224;DHT22;14965;50.660;13.226;2024-03-23T11:32:42;4.80;99.90
27224;DHT22;14965;50.660;13.226;2024-03-23T11:35:10;4.90;99.90
27224;DHT22;14965;50.660;13.226;2024-03-23T11:37:37;5.00;99.90
27224;DHT22;14965;50.660;13.226;2024-03-23T11:42:45;5.00;99.90
27224;DHT22;14965;50.660;13.226;2024-03-23T11:45:12;4.80;99.90
27224;DHT22;14965;50.660;13.226;2024-03-23T11:47:38;4.70;99.90
27224;DHT22;14965;50.660;13.226;2024-03-23T11:50:04;4.60;99.90
27224;DHT22;14965;50.660;13.226;2024-03-23T11:52:30;4.50;99.90
27224;DHT22;14965;50.660;13.226;2024-03-23T11:55:03;4.50;99.90
27224;DHT22;14965;50.660;13.226;2024-03-23T11:57:30;4.50;99.90
27224;DHT22;14965;50.660;13.226;2024-03-23T11:59:57;4.60;99.90
27224;DHT22;14965;50.660;13.226;2024-03-23T12:02:23;4.40;99.90
27224;DHT22;14965;50.660;13.226;2024-03-23T12:04:49;4.30;99.90
27224;DHT22;14965;50.660;13.226;2024-03-23T12:07:17;4.30;99.90
27224;DHT22;14965;50.660;13.226;2024-03-23T12:09:44;4.30;99.90
27224;DHT22;14965;50.660;13.226;2024-03-23T12:12:13;4.20;99.90
27224;DHT22;14965;50.660;13.226;2024-03-23T12:14:39;4.10;99.90
27224;DHT22;14965;50.660;13.226;2024-03-23T12:17:11;4.10;99.90
27224;DHT22;14965;50.660;13.226;2024-03-23T12:19:38;4.10;99.90
27224;DHT22;14965;50.660;13.226;2024-03-23T12:22:04;4.10;99.90
27224;DHT22;14965;50.660;13.226;2024-03-23T12:24:31;4.20;99.90
27224;DHT22;14965;50.660;13.226;2024-03-23T12:27:00;4.30;99.90
27224;DHT22;14965;50.660;13.226;2024-03-23T12:29:28;4.30;99.90
27224;DHT22;14965;50.660;13.226;2024-03-23T12:31:55;4.20;99.90
27224;DHT22;14965;50.660;13.226;2024-03-23T12:34:22;4.20;99.90
27224;DHT22;14965;50.660;13.226;2024-03-23T12:36:48;4.10;99.90
27224;DHT22;14965;50.660;13.226;2024-03-23T12:39:13;4.00;99.90
27224;DHT22;14965;50.660;13.226;2024-03-23T12:41:39;4.00;99.90
27224;DHT22;14965;50.660;13.226;2024-03-23T12:44:05;4.00;99.90
27224;DHT22;14965;50.660;13.226;2024-03-23T12:46:31;3.90;99.90
27224;DHT22;14965;50.660;13.226;2024-03-23T12:48:57;3.90;99.90
27224;DHT22;14965;50.660;13.226;2024-03-23T12:51:24;3.90;99.90
27224;DHT22;14965;50.660;13.226;2024-03-23T12:53:50;3.80;99.90
27224;DHT22;14965;50.660;13.226;2024-03-23T12:56:16;3.70;99.90
27224;DHT22;14965;50.660;13.226;2024-03-23T12:58:42;3.70;99.90
27224;DHT22;14965;50.660;13.226;2024-03-23T13:01:08;3.70;99.90
27224;DHT22;14965;50.660;13.226;2024-03-23T13:03:33;3.70;99.90
27224;DHT22;14965;50.660;13.226;2024-03-23T13:05:59;3.70;99.90
27224;DHT22;14965;50.660;13.226;2024-03-23T13:08:26;3.70;99.90
27224;DHT22;14965;50.660;13.226;2024-03-23T13:10:52;3.70;99.90
27224;DHT22;14965;50.660;13.226;2024-03-23T13:13:18;3.80;99.90
27224;DHT22;14965;50.660;13.226;2024-03-23T13:15:49;3.90;99.90
27224;DHT22;14965;50.660;13.226;2024-03-23T13:18:15;4.00;99.90
27224;DHT22;14965;50.660;13.226;2024-03-23T13:20:41;4.20;99.90
27224;DHT22;14965;50.660;13.226;2024-03-23T13:23:07;4.40;99.90
27224;DHT22;14965;50.660;13.226;2024-03-23T13:25:34;4.70;99.90
27224;DHT22;14965;50.660;13.226;2024-03-23T13:28:00;5.00;99.90
27224;DHT22;14965;50.660;13.226;2024-03-23T13:30:26;5.20;99.90
27224;DHT22;14965;50.660;13.226;2024-03-23T13:32:52;5.30;99.90
27224;DHT22;14965;50.660;13.226;2024-03-23T13:35:17;5.20;99.90
27224;DHT22;14965;50.660;13.226;2024-03-23T13:37:43;5.10;99.90
27224;DHT22;14965;50.660;13.226;2024-03-23T13:40:10;5.20;99.90
27224;DHT22;14965;50.660;13.226;2024-03-23T13:42:38;5.20;99.90
27224;DHT22;14965;50.660;13.226;2024-03-23T13:45:04;5.20;99.90
27224;DHT22;14965;50.660;13.226;2024-03-23T13:47:31;5.10;99.90
27224;DHT22;14965;50.660;13.226;2024-03-23T13:49:57;5.00;99.90
27224;DHT22;14965;50.660;13.226;2024-03-23T13:52:23;4.90;99.90
27224;DHT22;14965;50.660;13.226;2024-03-23T13:54:49;5.00;99.90
27224;DHT22;14965;50.660;13.226;2024-03-23T13:57:14;5.00;99.90
27224;DHT22;14965;50.660;13.226;2024-03-23T13:59:42;5.00;99.90
27224;DHT22;14965;50.660;13.226;2024-03-23T14:02:07;5.10;99.90
27224;DHT22;14965;50.660;13.226;2024-03-23T14:04:33;5.20;99.90
27224;DHT22;14965;50.660;13.226;2024-03-23T14:06:59;5.20;99.90
27224;DHT22;14965;50.660;13.226;2024-03-23T14:09:25;5.20;99.90
27224;DHT22;14965;50.660;13.226;2024-03-23T14:11:51;5.20;99.90
27224;DHT22;14965;50.660;13.226;2024-03-23T14:14:17;5.20;99.90
27224;DHT22;14965;50.660;13.226;2024-03-23T14:16:44;5.20;99.90
27224;DHT22;14965;50.660;13.226;2024-03-23T14:19:10;5.20;99.90
27224;DHT22;14965;50.660;13.226;2024-03-23T14:21:36;5.10;99.90
27224;DHT22;14965;50.660;13.226;2024-03-23T14:24:02;5.10;99.90
27224;DHT22;14965;50.660;13.226;2024-03-23T14:26:28;5.20;99.90
27224;DHT22;14965;50.660;13.226;2024-03-23T14:28:54;5.30;99.90
27224;DHT22;14965;50.660;13.226;2024-03-23T14:31:20;5.40;99.90
27224;DHT22;14965;50.660;13.226;2024-03-23T14:33:47;5.40;99.90
27224;DHT22;14965;50.660;13.226;2024-03-23T14:36:13;5.50;99.90
27224;DHT22;14965;50.660;13.226;2024-03-23T14:38:39;5.60;99.90
27224;DHT22;14965;50.660;13.226;2024-03-23T14:41:05;5.60;99.90
27224;DHT22;14965;50.660;13.226;2024-03-23T14:43:31;5.50;99.90
27224;DHT22;14965;50.660;13.226;2024-03-23T14:46:06;5.60;99.90
27224;DHT22;14965;50.660;13.226;2024-03-23T14:48:33;5.60;99.90
27224;DHT22;14965;50.660;13.226;2024-03-23T14:51:02;5.60;99.90
27224;DHT22;14965;50.660;13.226;2024-03-23T14:53:28;5.80;99.90
27224;DHT22;14965;50.660;13.226;2024-03-23T14:55:54;5.80;99.90
27224;DHT22;14965;50.660;13.226;2024-03-23T14:58:20;5.90;99.90
27224;DHT22;14965;50.660;13.226;2024-03-23T15:00:46;5.90;99.90
27224;DHT22;14965;50.660;13.226;2024-03-23T15:03:12;5.90;99.90
27224;DHT22;14965;50.660;13.226;2024-03-23T15:05:38;5.90;99.90
27224;DHT22;14965;50.660;13.226;2024-03-23T15:08:06;5.80;99.90
27224;DHT22;14965;50.660;13.226;2024-03-23T15:10:33;5.80;99.90
27224;DHT22;14965;50.660;13.226;2024-03-23T15:12:59;5.80;99.90
27224;DHT22;14965;50.660;13.226;2024-03-23T15:15:25;5.80;99.90
27224;DHT22;14965;50.660;13.226;2024-03-23T15:17:50;6.00;99.90
27224;DHT22;14965;50.660;13.226;2024-03-23T15:20:16;6.00;99.90
27224;DHT22;14965;50.660;13.226;2024-03-23T15:22:42;6.10;99.90
27224;DHT22;14965;50.660;13.226;2024-03-23T15:25:09;6.10;99.90
27224;DHT22;14965;50.660;13.226;2024-03-23T15:27:35;6.20;99.90
27224;DHT22;14965;50.660;13.226;2024-03-23T15:30:01;6.20;99.90
27224;DHT22;14965;50.660;13.226;2024-03-23T15:32:27;6.20;99.90
27224;DHT22;14965;50.660;13.226;2024-03-23T15:34:53;6.20;99.90
27224;DHT22;14965;50.660;13.226;2024-03-23T15:37:19;6.10;99.90
27224;DHT22;14965;50.660;13.226;2024-03-23T15:39:45;6.10;99.90
27224;DHT22;14965;50.660;13.226;2024-03-23T15:42:12;6.10;99.90
27224;DHT22;14965;50.660;13.226;2024-03-23T15:44:38;6.10;99.90
27224;DHT22;14965;50.660;13.226;2024-03-23T15:47:04;6.20;99.90
27224;DHT22;14965;50.660;13.226;2024-03-23T15:49:30;6.10;99.90
27224;DHT22;14965;50.660;13.226;2024-03-23T15:51:56;6.10;99.90
27224;DHT22;14965;50.660;13.226;2024-03-23T15:54:22;6.10;99.90
27224;DHT22;14965;50.660;13.226;2024-03-23T15:56:48;6.20;99.90
27224;DHT22;14965;50.660;13.226;2024-03-23T15:59:15;6.20;99.90
27224;DHT22;14965;50.660;13.226;2024-03-23T16:01:41;6.00;99.90
27224;DHT22;14965;50.660;13.226;2024-03-23T16:04:07;6.00;99.90
27224;DHT22;14965;50.660;13.226;2024-03-23T16:06:33;6.00;99.90
27224;DHT22;14965;50.660;13.226;2024-03-23T16:08:58;6.00;99.90
27224;DHT22;14965;50.660;13.226;2024-03-23T16:11:24;5.90;99.90
27224;DHT22;14965;50.660;13.226;2024-03-23T16:13:50;5.90;99.90
27224;DHT22;14965;50.660;13.226;2024-03-23T16:16:17;5.80;99.90
27224;DHT22;14965;50.660;13.226;2024-03-23T16:18:43;5.80;99.90
27224;DHT22;14965;50.660;13.226;2024-03-23T16:21:09;5.80;99.90
27224;DHT22;14965;50.660;13.226;2024-03-23T16:23:36;5.80;99.90